Time;durP1;ratioP1;P1;durP2;ratioP2;P2;SDS_P1;SDS_P2;PMS_P1;PMS_P2;Temp;Humidity;BMP_temperature;BMP_pressure;BME280_temperature;BME280_humidity;BME280_pressure;Samples;Min_cycle;Max_cycle;Signal;HPM_P1;HPM_P2
2022/04/10 00:03:47;;;;;;;9.55;2.00;;;;;;;1.41;80.17;98620.91;10408023;28;20056;-71
2022/04/10 00:08:50;;;;;;;9.60;2.08;;;;;;;1.49;80.10;98650.31;10408841;28;20447;-70
2022/04/10 00:13:51;;;;;;;16.58;4.28;;;;;;;1.57;80.36;98681.41;10409120;28;20040;-70
2022/04/10 00:18:53;;;;;;;12.88;2.10;;;;;;;1.64;80.17;98703.91;10411996;28;20060;-70
2022/04/10 00:23:55;;;;;;;12.07;2.22;;;;;;;1.61;80.31;98697.81;10406979;28;20048;-70
2022/04/10 00:28:58;;;;;;;28.50;6.68;;;;;;;1.66;80.51;98714.25;10407994;28;20048;-70
2022/04/10 00:34:00;;;;;;;17.00;3.00;;;;;;;1.69;80.39;98732.38;10409458;28;20136;-70
2022/04/10 00:39:03;;;;;;;15.23;2.83;;;;;;;1.72;80.52;98756.50;10411171;28;20535;-70
2022/04/10 00:44:06;;;;;;;9.85;1.85;;;;;;;1.72;80.65;98750.50;10407051;28;20044;-70
2022/04/10 00:49:09;;;;;;;11.38;2.20;;;;;;;1.63;80.74;98706.47;10396545;28;20520;-70
2022/04/10 00:54:16;;;;;;;11.75;2.47;;;;;;;1.50;80.81;98670.13;10406963;28;20045;-69
2022/04/10 00:59:17;;;;;;;10.95;1.73;;;;;;;1.42;80.70;98644.16;10404998;28;20041;-69
2022/04/10 01:04:19;;;;;;;6.82;1.55;;;;;;;1.34;80.49;98607.03;10404407;28;20045;-70
2022/04/10 01:09:21;;;;;;;12.40;1.50;;;;;;;1.28;80.68;98588.88;10404588;28;20045;-70
2022/04/10 01:14:23;;;;;;;10.15;2.15;;;;;;;1.23;80.64;98568.16;10404011;28;20100;-70
2022/04/10 01:19:25;;;;;;;12.52;2.13;;;;;;;1.23;81.10;98568.16;10377317;28;20849;-69
2022/04/10 01:24:34;;;;;;;12.15;1.77;;;;;;;1.28;80.98;98585.44;10400663;28;20112;-70
2022/04/10 01:29:36;;;;;;;9.93;2.08;;;;;;;1.33;80.63;98607.00;10404267;28;20811;-70
2022/04/10 01:34:40;;;;;;;11.20;1.80;;;;;;;1.37;80.94;98627.72;10400759;28;20522;-70
2022/04/10 01:39:42;;;;;;;6.82;1.75;;;;;;;1.40;81.28;98642.41;10401150;28;20041;-70
2022/04/10 01:44:45;;;;;;;6.97;1.95;;;;;;;1.49;81.16;98673.53;10398011;28;20437;-70
2022/04/10 01:49:50;;;;;;;5.95;1.67;;;;;;;1.41;81.31;98650.16;10375110;28;20373;-70
2022/04/10 01:54:53;;;;;;;12.80;2.30;;;;;;;1.27;81.45;98588.84;10406454;28;20953;-70
2022/04/10 01:59:55;;;;;;;9.20;2.00;;;;;;;1.19;81.14;98550.91;10406186;28;20036;-70
2022/04/10 02:04:58;;;;;;;6.45;1.45;;;;;;;1.12;81.40;98531.00;10404956;28;20045;-69
2022/04/10 02:10:00;;;;;;;11.30;2.85;;;;;;;1.11;81.20;98531.84;10401271;28;20041;-70
2022/04/10 02:15:04;;;;;;;9.45;1.65;;;;;;;1.14;81.44;98544.78;10403805;28;20950;-70
2022/04/10 02:20:06;;;;;;;7.03;1.80;;;;;;;1.16;81.63;98550.84;10401753;28;20037;-70
2022/04/10 02:25:08;;;;;;;7.55;1.95;;;;;;;1.13;81.50;98537.91;10300695;28;20180;-70
2022/04/10 02:30:12;;;;;;;6.13;2.00;;;;;;;1.07;81.71;98517.16;10361570;28;20057;-70
2022/04/10 02:35:15;;;;;;;8.38;1.92;;;;;;;1.12;81.49;98533.56;10376761;28;20053;-69
2022/04/10 02:40:18;;;;;;;5.90;2.13;;;;;;;1.11;81.76;98539.59;10392595;28;20492;-70
2022/04/10 02:45:21;;;;;;;7.15;2.13;;;;;;;1.06;82.19;98520.56;10397979;28;20054;-69
2022/04/10 02:50:24;;;;;;;11.30;2.47;;;;;;;0.98;82.19;98480.91;10397969;28;20053;-70
2022/04/10 02:55:26;;;;;;;3.53;1.33;;;;;;;0.90;82.02;98454.97;10396239;28;20052;-70
2022/04/10 03:00:28;;;;;;;8.68;2.45;;;;;;;0.82;81.85;98426.50;10406124;28;20040;-69
2022/04/10 03:05:30;;;;;;;11.95;1.80;;;;;;;0.77;82.02;98412.69;10415161;28;20065;-69
2022/04/10 03:10:32;;;;;;;6.25;2.30;;;;;;;0.73;81.88;98395.41;10409185;28;20602;-70
2022/04/10 03:15:33;;;;;;;13.52;2.13;;;;;;;0.67;82.24;98379.84;10403583;28;20582;-70
2022/04/10 03:20:35;;;;;;;9.52;2.15;;;;;;;0.68;81.97;98376.47;10398656;28;20049;-70
2022/04/10 03:25:37;;;;;;;10.25;2.55;;;;;;;0.65;82.02;98366.09;10407933;28;20058;-68
2022/04/10 03:30:40;;;;;;;12.82;2.47;;;;;;;0.67;82.25;98374.72;10406416;28;20397;-70
2022/04/10 03:35:42;;;;;;;13.02;2.22;;;;;;;0.71;82.13;98391.97;10411591;28;21051;-69
2022/04/10 03:40:45;;;;;;;8.35;1.95;;;;;;;0.74;82.46;98412.63;10408058;28;22158;-70
2022/04/10 03:45:47;;;;;;;10.48;1.83;;;;;;;0.74;82.12;98410.06;10398431;28;20567;-70
2022/04/10 03:50:49;;;;;;;17.63;2.40;;;;;;;0.84;82.66;98450.59;10379690;28;20038;-70
2022/04/10 03:55:52;;;;;;;7.93;1.90;;;;;;;0.84;82.50;98450.59;10406716;28;20072;-70
2022/04/10 04:00:56;;;;;;;9.60;2.05;;;;;;;0.88;82.59;98462.69;10394754;28;20049;-70
2022/04/10 04:05:58;;;;;;;12.30;1.58;;;;;;;0.99;82.63;98513.56;10405140;28;20542;-70
2022/04/10 04:11:00;;;;;;;12.90;2.35;;;;;;;1.10;82.73;98550.72;10409431;28;20124;-70
2022/04/10 04:16:03;;;;;;;16.25;2.20;;;;;;;1.17;82.69;98574.91;10422466;28;20087;-69
2022/04/10 04:21:04;;;;;;;11.75;2.05;;;;;;;1.23;82.74;98605.94;10394538;28;20589;-69
2022/04/10 04:26:13;;;;;;;5.55;1.48;;;;;;;1.24;82.95;98608.56;10404723;28;20194;-70
2022/04/10 04:31:16;;;;;;;8.50;2.03;;;;;;;1.24;82.88;98610.28;10399948;28;20049;-69
2022/04/10 04:36:18;;;;;;;16.65;2.08;;;;;;;1.24;83.38;98605.97;10401842;28;20056;-70
2022/04/10 04:41:20;;;;;;;14.63;2.17;;;;;;;1.17;83.16;98580.94;10393667;28;20037;-69
2022/04/10 04:46:22;;;;;;;6.50;2.60;;;;;;;1.11;83.34;98562.78;10405358;28;20151;-68
2022/04/10 04:51:25;;;;;;;13.43;1.80;;;;;;;1.08;82.87;98551.53;10404450;28;20044;-69
2022/04/10 04:56:27;;;;;;;8.00;2.42;;;;;;;1.02;83.32;98532.53;10404637;28;20069;-69
2022/04/10 05:01:29;;;;;;;8.73;1.52;;;;;;;0.94;82.96;98500.59;10400474;28;20841;-68
2022/04/10 05:06:31;;;;;;;12.60;1.73;;;;;;;0.88;83.07;98480.72;10405916;28;20044;-66
2022/04/10 05:11:33;;;;;;;9.95;1.63;;;;;;;0.88;83.14;98475.56;10401362;28;20041;-66
2022/04/10 05:16:35;;;;;;;5.65;1.40;;;;;;;0.87;83.40;98476.44;10377303;28;20096;-69
2022/04/10 05:21:37;;;;;;;3.35;1.30;;;;;;;0.87;83.55;98479.00;10404394;28;20427;-67
2022/04/10 05:26:42;;;;;;;10.57;1.45;;;;;;;0.88;83.13;98488.44;10407436;28;20648;-68
2022/04/10 05:31:46;;;;;;;7.95;1.75;;;;;;;0.97;83.61;98517.81;10397758;28;20049;-70
2022/04/10 05:36:48;;;;;;;10.77;1.67;;;;;;;0.96;83.82;98508.34;10393641;28;20049;-69
2022/04/10 05:41:53;;;;;;;6.18;2.00;;;;;;;1.04;83.76;98548.91;10363544;28;20044;-70
2022/04/10 05:46:55;;;;;;;10.52;2.00;;;;;;;1.17;83.71;98592.94;10393671;28;20129;-69
2022/04/10 05:51:57;;;;;;;3.28;1.10;;;;;;;1.34;83.95;98662.91;10397598;28;20044;-70
2022/04/10 05:57:00;;;;;;;11.38;2.47;;;;;;;1.50;84.00;98734.59;10403376;28;20056;-69
2022/04/10 06:02:02;;;;;;;13.35;2.13;;;;;;;1.66;84.03;98794.25;10393597;28;20029;-69
2022/04/10 06:07:05;;;;;;;9.40;1.90;;;;;;;1.77;84.35;98834.91;10399204;28;20615;-70
2022/04/10 06:12:12;;;;;;;12.70;2.53;;;;;;;1.86;84.23;98867.78;10419693;28;20038;-70
2022/04/10 06:17:18;;;;;;;5.80;1.58;;;;;;;1.96;84.19;98917.03;10380965;28;20044;-70
2022/04/10 06:22:23;;;;;;;11.02;1.77;;;;;;;1.98;84.27;98923.09;10390031;28;20037;-70
2022/04/10 06:27:25;;;;;;;11.73;2.75;;;;;;;2.21;84.83;99012.25;10397810;28;20049;-70
2022/04/10 06:32:27;;;;;;;9.70;2.20;;;;;;;2.48;84.47;99120.50;10382687;28;20756;-70
2022/04/10 06:37:32;;;;;;;9.82;1.70;;;;;;;2.45;84.63;99104.06;10387084;28;20052;-70
2022/04/10 06:42:34;;;;;;;5.50;1.52;;;;;;;2.46;84.32;99118.69;10386071;28;20521;-69
2022/04/10 06:47:47;;;;;;;18.30;2.53;;;;;;;2.52;84.77;99136.91;10387513;28;20056;-69
2022/04/10 06:52:49;;;;;;;10.23;1.70;;;;;;;2.54;84.61;99155.94;10397421;28;20416;-69
2022/04/10 06:57:52;;;;;;;7.35;1.20;;;;;;;2.61;84.70;99177.63;10397128;28;20041;-69
2022/04/10 07:02:55;;;;;;;4.65;1.30;;;;;;;2.72;84.74;99216.63;10395797;28;20077;-69
2022/04/10 07:07:57;;;;;;;3.47;1.00;;;;;;;2.72;84.74;99216.63;10392800;28;20137;-69
2022/04/10 07:12:59;;;;;;;2.90;1.08;;;;;;;4.90;85.42;100093.25;10388393;28;20761;-68
2022/04/10 07:18:02;;;;;;;7.25;1.33;;;;;;;5.29;85.60;100248.38;10398192;28;20045;-69
2022/04/10 07:28:25;;;;;;;10.68;2.13;;;;;;;6.12;85.74;100590.41;10384173;28;20060;-70
2022/04/10 07:33:30;;;;;;;3.78;1.02;;;;;;;5.55;85.83;100360.81;10391660;28;20389;-70
2022/04/10 07:38:40;;;;;;;7.40;2.05;;;;;;;5.13;85.82;100192.53;10381584;28;20053;-71
2022/04/10 07:43:46;;;;;;;8.77;1.33;;;;;;;5.36;85.82;100280.59;10372521;28;20050;-69
2022/04/10 07:48:48;;;;;;;8.27;1.13;;;;;;;4.84;85.76;100078.41;10377567;28;20056;-70
2022/04/10 07:53:56;;;;;;;10.35;1.63;;;;;;;4.78;85.71;100062.66;10397335;28;20861;-70
2022/04/10 07:58:59;;;;;;;6.15;1.42;;;;;;;5.96;85.78;100539.59;10386134;28;20502;-70
2022/04/10 08:04:09;;;;;;;;;;;;;;;5.49;85.99;100347.66;10406107;28;20049;-70
2022/04/10 08:09:28;;;;;;;3.60;1.52;;;;;;;4.98;85.95;100143.66;10396535;28;19935;-71
2022/04/10 08:14:29;;;;;;;5.55;1.42;;;;;;;4.65;85.63;100017.31;10406900;28;20041;-70
2022/04/10 08:19:31;;;;;;;6.65;1.40;;;;;;;4.56;85.63;99975.56;10410534;28;20044;-70
2022/04/10 08:24:32;;;;;;;6.35;1.60;;;;;;;4.70;85.70;100031.31;10405370;28;20060;-73
2022/04/10 08:29:34;;;;;;;2.65;1.00;;;;;;;5.63;85.98;100405.19;10403948;28;20045;-77
2022/04/10 08:34:36;;;;;;;3.83;1.42;;;;;;;6.67;85.81;100833.25;10400794;28;20045;-71
2022/04/10 08:39:42;;;;;;;7.60;1.63;;;;;;;7.05;86.23;100984.63;10409504;28;20040;-71
2022/04/10 08:44:45;;;;;;;8.38;1.50;;;;;;;7.99;86.43;101371.03;10411553;28;20401;-71
2022/04/10 08:49:48;;;;;;;7.57;2.13;;;;;;;8.06;86.50;101393.00;10410591;28;20037;-71
2022/04/10 08:54:49;;;;;;;8.93;1.63;;;;;;;8.04;86.36;101392.06;10410163;28;20049;-71
2022/04/10 08:59:56;;;;;;;7.30;1.40;;;;;;;7.29;86.29;101093.09;10407366;28;20548;-71
2022/04/10 09:04:58;;;;;;;6.30;1.10;;;;;;;6.63;86.01;100824.41;10413200;28;20041;-70
2022/04/10 09:09:59;;;;;;;9.32;1.70;;;;;;;6.53;86.08;100778.09;10405203;28;20041;-69
2022/04/10 09:15:03;;;;;;;6.13;1.40;;;;;;;6.34;85.95;100709.00;10404592;28;20040;-71
2022/04/10 09:20:05;;;;;;;7.22;1.38;;;;;;;5.75;85.74;100464.44;10395426;28;20520;-71
2022/04/10 09:25:16;;;;;;;11.38;1.52;;;;;;;5.32;85.54;100292.59;10401471;28;20902;-72
2022/04/10 09:30:20;;;;;;;9.23;1.73;;;;;;;5.13;85.51;100205.50;10403514;28;20037;-71
2022/04/10 09:35:22;;;;;;;8.57;1.95;;;;;;;5.25;85.51;100260.38;10399511;28;20530;-70
2022/04/10 09:40:31;;;;;;;10.38;1.98;;;;;;;6.53;85.61;100775.50;10397282;28;20067;-70
2022/04/10 09:45:41;;;;;;;9.45;1.40;;;;;;;6.88;85.83;100921.56;10396162;28;20060;-69
2022/04/10 09:50:42;;;;;;;13.07;1.83;;;;;;;7.24;85.64;101067.75;10397333;28;20052;-71
2022/04/10 09:55:50;;;;;;;4.18;1.17;;;;;;;8.47;85.83;101581.59;10402377;28;20045;-71
2022/04/10 10:00:54;;;;;;;6.07;1.33;;;;;;;8.19;85.99;101463.06;10404599;28;20135;-71
2022/04/10 10:05:58;;;;;;;3.38;1.20;;;;;;;7.54;85.89;101199.97;10398199;28;20045;-71
2022/04/10 10:11:00;;;;;;;9.15;1.52;;;;;;;6.65;85.61;100827.06;10402306;28;20550;-70
2022/04/10 10:16:03;;;;;;;9.20;1.55;;;;;;;6.86;85.50;100908.50;10404017;28;20119;-71
2022/04/10 10:21:07;;;;;;;5.38;1.58;;;;;;;7.16;85.42;101040.56;10402251;28;20052;-71
2022/04/10 10:26:24;;;;;;;9.32;1.80;;;;;;;8.06;85.72;101408.66;10404812;28;20505;-71
2022/04/10 10:31:51;;;;;;;8.55;1.42;;;;;;;8.09;85.62;101411.38;10402284;28;20055;-71
2022/04/10 10:36:54;;;;;;;6.38;1.00;;;;;;;7.96;85.47;101360.50;10401312;28;20041;-71
2022/04/10 10:42:09;;;;;;;4.57;1.25;;;;;;;7.90;85.30;101339.41;10404368;28;20057;-71
2022/04/10 10:47:25;;;;;;;11.13;1.13;;;;;;;8.21;85.15;101471.84;10406034;28;20049;-71
2022/04/10 10:52:27;;;;;;;3.28;1.00;;;;;;;8.32;85.27;101522.72;10406617;28;20188;-70
2022/04/10 10:57:41;;;;;;;5.13;1.08;;;;;;;8.72;85.32;101676.50;10404126;28;20412;-71
2022/04/10 11:02:52;;;;;;;2.58;0.80;;;;;;;9.03;85.28;101815.31;10404831;28;20076;-70
2022/04/10 11:08:07;;;;;;;5.88;0.98;;;;;;;8.94;85.42;101769.66;10406767;28;20836;-70
2022/04/10 11:13:09;;;;;;;6.93;0.82;;;;;;;8.06;84.80;101406.03;10404848;28;20051;-70
2022/04/10 11:18:23;;;;;;;6.28;1.08;;;;;;;7.07;84.75;101006.38;10405755;28;20540;-70
2022/04/10 11:23:31;;;;;;;5.78;1.23;;;;;;;6.67;84.44;100844.53;10408444;28;20068;-70
2022/04/10 11:28:55;;;;;;;6.43;0.90;;;;;;;7.07;84.39;101003.78;10410453;28;20040;-71
2022/04/10 11:34:20;;;;;;;1.85;0.68;;;;;;;7.74;84.48;101280.59;10409294;28;20062;-70
2022/04/10 11:39:34;;;;;;;7.18;1.00;;;;;;;8.27;84.49;101486.84;10407209;28;20048;-70
2022/04/10 11:44:36;;;;;;;6.88;1.30;;;;;;;8.78;84.50;101700.25;10408588;28;20052;-70
2022/04/10 11:49:37;;;;;;;6.47;1.02;;;;;;;9.08;84.60;101827.66;10406618;28;20072;-69
2022/04/10 11:54:39;;;;;;;9.60;1.40;;;;;;;9.38;84.55;101951.75;10410032;28;20041;-70
2022/04/10 11:59:45;;;;;;;5.25;0.98;;;;;;;9.43;84.33;101961.47;10407803;28;20033;-70
2022/04/10 12:04:49;;;;;;;5.32;1.27;;;;;;;9.31;84.32;101917.47;10406458;28;20060;-71
2022/04/10 12:09:52;;;;;;;3.47;1.02;;;;;;;9.52;84.09;102006.31;10406136;28;20139;-70
2022/04/10 12:14:54;;;;;;;6.43;1.02;;;;;;;9.90;84.22;102156.09;10380843;28;20275;-70
2022/04/10 12:19:55;;;;;;;6.35;1.30;;;;;;;10.00;84.10;102196.63;10383292;28;20040;-70
2022/04/10 12:24:58;;;;;;;8.00;0.90;;;;;;;10.00;84.10;102196.63;10399107;28;20052;-70
2022/04/10 12:30:08;;;;;;;7.20;1.08;;;;;;;9.77;83.93;102098.84;10365153;28;20145;-70
2022/04/10 12:35:13;;;;;;;5.18;0.90;;;;;;;9.21;84.02;101871.75;10383430;28;20133;-70
2022/04/10 12:40:27;;;;;;;5.50;0.77;;;;;;;9.68;83.54;102063.66;10387463;28;20048;-70
2022/04/10 12:45:30;;;;;;;3.95;1.10;;;;;;;8.67;83.32;101639.78;10391291;28;20042;-69
2022/04/10 12:50:31;;;;;;;4.03;0.80;;;;;;;7.19;82.88;101035.47;10390612;28;20057;-70
2022/04/10 12:55:36;;;;;;;5.82;1.20;;;;;;;7.62;82.71;101202.84;10384874;28;20905;-70
2022/04/10 13:00:45;;;;;;;3.35;0.90;;;;;;;8.16;82.79;101420.34;10382037;28;20523;-69
2022/04/10 13:06:01;;;;;;;9.60;4.37;;;;;;;8.47;82.70;101548.53;10371235;28;20046;-70
2022/04/10 13:11:05;;;;;;;13.93;3.80;;;;;;;8.91;82.69;101739.06;10378902;28;20050;-70
2022/04/10 13:16:31;;;;;;;6.68;1.40;;;;;;;8.88;82.62;101712.84;10402466;28;20048;-69
2022/04/10 13:21:37;;;;;;;7.38;1.40;;;;;;;8.50;82.46;101553.00;10406787;28;20055;-69
2022/04/10 13:26:40;;;;;;;5.10;1.02;;;;;;;8.39;82.19;101517.72;10405210;28;20052;-69
2022/04/10 13:31:41;;;;;;;3.33;1.20;;;;;;;8.87;82.24;101707.56;10402508;28;20633;-70
2022/04/10 13:36:43;;;;;;;4.07;0.88;;;;;;;9.48;82.22;101963.44;10405037;28;20041;-68
2022/04/10 13:41:48;;;;;;;3.47;0.60;;;;;;;8.94;82.15;101739.19;10403863;28;20049;-68
2022/04/10 13:46:49;;;;;;;4.90;0.73;;;;;;;8.97;81.92;101738.44;10408393;28;20132;-68
2022/04/10 13:51:51;;;;;;;3.78;0.90;;;;;;;9.03;81.93;101764.78;10404444;28;20423;-66
2022/04/10 13:56:53;;;;;;;2.53;0.85;;;;;;;9.22;81.79;101850.03;10400700;28;20056;-67
2022/04/10 14:01:54;;;;;;;4.28;1.40;;;;;;;9.62;81.55;102012.81;10395027;28;20907;-67
2022/04/10 14:06:57;;;;;;;7.15;1.60;;;;;;;9.75;81.61;102063.91;10407090;28;20052;-67
2022/04/10 14:11:59;;;;;;;5.10;1.13;;;;;;;9.20;81.31;101836.91;10390680;28;20045;-64
2022/04/10 14:17:00;;;;;;;4.53;1.00;;;;;;;9.10;81.04;101792.94;10396148;28;20052;-70
2022/04/10 14:22:03;;;;;;;9.02;2.58;;;;;;;9.03;81.05;101757.81;10401434;28;20059;-68
2022/04/10 14:27:05;;;;;;;4.38;1.65;;;;;;;9.11;80.94;101792.13;10403254;28;20048;-70
2022/04/10 14:32:07;;;;;;;7.03;2.20;;;;;;;9.60;80.67;101997.06;10402094;28;20052;-70
2022/04/10 14:37:08;;;;;;;3.17;1.08;;;;;;;9.81;80.84;102072.00;10404185;28;20059;-70
2022/04/10 14:42:10;;;;;;;3.78;1.52;;;;;;;10.06;80.76;102183.81;10401889;28;20056;-70
2022/04/10 14:47:11;;;;;;;4.95;1.20;;;;;;;10.38;80.60;102307.31;10398325;28;20172;-69
2022/04/10 14:52:13;;;;;;;5.80;1.15;;;;;;;10.70;80.63;102442.25;10399966;28;20660;-70
2022/04/10 14:57:15;;;;;;;12.48;1.85;;;;;;;10.90;80.43;102523.44;10405960;28;20126;-70
2022/04/10 15:02:16;;;;;;;5.93;1.38;;;;;;;10.23;80.21;102242.06;10406716;28;20046;-70
2022/04/10 15:07:18;;;;;;;9.65;1.88;;;;;;;9.81;80.06;102070.25;10389973;28;21252;-70
2022/04/10 15:12:20;;;;;;;8.82;2.13;;;;;;;9.67;79.88;102009.56;10392754;28;20071;-69
2022/04/10 15:17:21;;;;;;;10.40;2.45;;;;;;;9.05;79.90;101750.03;10391610;28;20056;-70
2022/04/10 15:22:23;;;;;;;5.10;1.42;;;;;;;8.55;79.38;101543.59;10404696;28;20053;-70
2022/04/10 15:27:24;;;;;;;7.68;1.17;;;;;;;8.94;79.17;101701.75;10402140;28;20871;-70
2022/04/10 15:32:26;;;;;;;6.03;1.13;;;;;;;9.29;79.10;101844.22;10408427;28;20049;-71
2022/04/10 15:37:28;;;;;;;7.28;0.95;;;;;;;9.40;79.10;101886.44;10406383;28;20045;-70
2022/04/10 15:42:30;;;;;;;3.00;0.95;;;;;;;9.68;79.00;102006.13;10413589;28;20049;-70
2022/04/10 15:47:31;;;;;;;5.97;1.10;;;;;;;9.69;78.88;102007.88;10409520;28;20411;-70
2022/04/10 15:52:35;;;;;;;5.93;0.85;;;;;;;9.51;78.76;101929.59;10424599;28;20911;-69
2022/04/10 15:57:38;;;;;;;7.65;1.45;;;;;;;9.24;78.53;101814.38;10411018;28;20056;-68
2022/04/10 16:02:44;;;;;;;6.43;1.20;;;;;;;9.57;78.36;101941.13;10408728;28;20828;-70
2022/04/10 16:07:47;;;;;;;5.10;1.80;;;;;;;9.69;78.44;101994.81;10405950;28;20504;-69
2022/04/10 16:12:49;;;;;;;7.78;1.00;;;;;;;9.82;78.12;102043.28;10407228;28;20048;-70
2022/04/10 16:17:50;;;;;;;2.58;0.73;;;;;;;9.57;77.97;101944.63;10405240;28;20514;-71
2022/04/10 16:22:52;;;;;;;6.47;1.00;;;;;;;9.32;77.83;101841.72;10412866;28;20535;-71
2022/04/10 16:33:14;;;;;;;3.53;1.00;;;;;;;9.16;77.30;101763.56;10390196;28;20088;-70
2022/04/10 16:38:15;;;;;;;2.78;0.70;;;;;;;8.91;77.13;101654.59;10391814;28;20045;-69
2022/04/10 16:43:17;;;;;;;6.40;1.45;;;;;;;8.84;77.02;101636.09;10401267;28;20106;-70
2022/04/10 16:48:18;;;;;;;4.95;0.93;;;;;;;8.91;76.76;101652.00;10404198;28;20500;-71
2022/04/10 16:53:20;;;;;;;5.65;1.00;;;;;;;8.89;76.72;101649.31;10386092;28;20467;-69
2022/04/10 16:58:22;;;;;;;5.82;1.45;;;;;;;8.76;76.55;101592.25;10394234;28;20052;-70
2022/04/10 17:03:23;;;;;;;7.45;1.38;;;;;;;8.85;76.42;101626.53;10408005;28;20139;-70
2022/04/10 17:08:25;;;;;;;7.40;1.10;;;;;;;8.75;76.05;101577.41;10397360;28;20582;-70
2022/04/10 17:13:26;;;;;;;5.32;1.30;;;;;;;8.59;76.35;101516.78;10402846;28;20112;-70
2022/04/10 17:18:30;;;;;;;5.00;1.15;;;;;;;8.30;75.93;101393.00;10407812;28;20053;-70
2022/04/10 17:23:31;;;;;;;7.95;2.70;;;;;;;8.13;75.54;101321.97;10414803;28;20443;-71
2022/04/10 17:28:33;;;;;;;9.48;1.83;;;;;;;8.04;75.40;101285.13;10408295;28;20037;-70
2022/04/10 17:33:35;;;;;;;7.50;1.95;;;;;;;7.80;75.44;101181.75;10407949;28;20052;-69
2022/04/10 17:38:36;;;;;;;9.35;1.48;;;;;;;7.50;75.15;101065.16;10398476;28;20051;-69
2022/04/10 17:43:38;;;;;;;6.28;1.52;;;;;;;7.20;74.98;100943.47;10408570;28;20052;-69
2022/04/10 17:48:39;;;;;;;7.57;2.33;;;;;;;7.02;74.85;100864.75;10419024;28;20053;-68
2022/04/10 17:53:41;;;;;;;10.23;2.42;;;;;;;6.79;74.71;100772.91;10412014;28;20051;-70
2022/04/10 17:58:42;;;;;;;8.00;2.03;;;;;;;6.63;74.49;100704.72;10413322;28;20413;-69
2022/04/10 18:03:44;;;;;;;9.95;2.80;;;;;;;6.49;74.27;100649.66;10412337;28;20052;-69
2022/04/10 18:08:52;;;;;;;9.60;3.40;;;;;;;6.35;74.30;100588.53;10418735;28;20037;-69
2022/04/10 18:13:53;;;;;;;12.85;2.30;;;;;;;6.28;74.17;100561.47;10423378;28;20080;-69
2022/04/10 18:18:55;;;;;;;9.38;1.67;;;;;;;6.07;74.12;100483.69;10409747;28;20068;-68
2022/04/10 18:23:57;;;;;;;5.05;1.48;;;;;;;5.93;74.02;100425.16;10402358;28;20043;-68
2022/04/10 18:28:59;;;;;;;13.80;7.35;;;;;;;5.78;73.86;100361.53;10412525;28;20095;-70
2022/04/10 18:34:02;;;;;;;9.63;2.83;;;;;;;5.67;73.81;100313.56;10408115;28;20072;-69
2022/04/10 18:39:06;;;;;;;13.80;3.42;;;;;;;5.58;74.05;100271.72;10399038;28;20073;-68
2022/04/10 18:44:09;;;;;;;18.42;7.47;;;;;;;5.56;73.85;100271.69;10408775;28;20064;-70
2022/04/10 18:54:32;;;;;;;6.68;2.20;;;;;;;5.14;73.39;100100.88;10399322;28;20068;-69
2022/04/10 18:59:34;;;;;;;4.85;1.90;;;;;;;5.01;73.27;100052.06;10400698;28;20048;-70
2022/04/10 19:04:36;;;;;;;3.65;1.80;;;;;;;4.92;73.38;100013.75;10408035;28;20046;-70
2022/04/10 19:09:37;;;;;;;13.95;2.67;;;;;;;4.78;73.31;99966.69;10396322;28;20060;-70
2022/04/10 19:14:39;;;;;;;6.72;2.85;;;;;;;4.72;73.18;99935.41;10391116;28;20050;-69
2022/04/10 19:19:41;;;;;;;13.73;5.13;;;;;;;4.68;73.14;99912.81;10394880;28;20087;-70
2022/04/10 19:24:43;;;;;;;21.73;9.63;;;;;;;4.52;73.00;99859.66;10396498;28;20054;-69
2022/04/10 19:29:44;;;;;;;47.03;21.15;;;;;;;4.39;72.87;99807.47;10383609;28;20069;-70
2022/04/10 19:34:46;;;;;;;32.75;14.77;;;;;;;4.23;72.97;99746.63;10401920;28;20103;-70
2022/04/10 19:39:48;;;;;;;19.65;7.63;;;;;;;4.01;72.72;99653.63;10396691;28;20046;-70
2022/04/10 19:44:51;;;;;;;11.75;5.05;;;;;;;3.80;72.86;99573.66;10404181;28;20132;-70
2022/04/10 19:49:52;;;;;;;14.48;5.25;;;;;;;3.65;72.89;99520.66;10404772;28;20046;-70
2022/04/10 19:54:54;;;;;;;16.60;4.68;;;;;;;3.43;72.59;99426.09;10400524;28;20042;-70
2022/04/10 19:59:56;;;;;;;12.68;3.72;;;;;;;3.32;72.60;99387.03;10404451;28;20056;-69
2022/04/10 20:04:58;;;;;;;9.15;3.35;;;;;;;3.17;72.58;99316.81;10408151;28;20042;-70
2022/04/10 20:09:59;;;;;;;13.45;3.17;;;;;;;2.97;72.53;99250.00;10402887;28;20409;-69
2022/04/10 20:15:01;;;;;;;11.23;3.03;;;;;;;2.97;72.53;99250.00;10401428;28;20055;-70
2022/04/10 20:20:04;;;;;;;9.38;2.28;;;;;;;2.69;72.18;99128.69;10403131;28;20124;-70
2022/04/10 20:25:06;;;;;;;11.27;2.85;;;;;;;2.57;72.52;99091.41;10405484;28;20042;-70
2022/04/10 20:30:08;;;;;;;9.35;2.20;;;;;;;2.40;72.13;99023.88;10413190;28;20044;-69
2022/04/10 20:35:10;;;;;;;11.75;2.53;;;;;;;2.25;72.25;98964.13;10403328;28;20791;-69
2022/04/10 20:40:11;;;;;;;9.75;1.83;;;;;;;2.10;72.65;98905.25;10412468;28;20051;-69
2022/04/10 20:45:14;;;;;;;10.52;2.03;;;;;;;1.97;71.96;98859.38;10406168;28;20068;-67
2022/04/10 20:50:16;;;;;;;9.63;2.53;;;;;;;1.84;72.17;98809.22;10393267;28;20141;-67
2022/04/10 20:55:18;;;;;;;6.53;2.17;;;;;;;1.71;72.09;98757.38;10406279;28;20051;-67
2022/04/10 21:00:20;;;;;;;6.70;2.10;;;;;;;1.61;72.21;98715.84;10403658;28;20460;-67
2022/04/10 21:05:21;;;;;;;3.65;1.90;;;;;;;1.50;72.31;98672.69;10404280;28;20513;-67
2022/04/10 21:15:44;;;;;;;10.63;4.27;;;;;;;1.29;72.36;98600.06;10399852;28;20037;-67
2022/04/10 21:20:46;;;;;;;13.02;4.10;;;;;;;1.18;72.07;98554.31;10408565;28;20461;-67
2022/04/10 21:25:47;;;;;;;18.92;4.70;;;;;;;1.11;72.27;98525.81;10418864;28;20037;-67
2022/04/10 21:30:52;;;;;;;16.60;5.25;;;;;;;1.00;72.19;98482.66;10412421;28;20033;-67
2022/04/10 21:35:54;;;;;;;13.65;4.30;;;;;;;0.90;72.28;98451.53;10414286;28;20069;-67
2022/04/10 21:40:56;;;;;;;12.13;3.63;;;;;;;0.79;72.15;98405.84;10400323;28;20052;-67
2022/04/10 21:45:58;;;;;;;8.63;2.33;;;;;;;0.73;72.36;98384.25;10401210;28;20116;-67
2022/04/10 21:51:00;;;;;;;8.75;1.98;;;;;;;0.65;72.19;98354.06;10400837;28;20067;-67
2022/04/10 21:56:03;;;;;;;9.23;2.08;;;;;;;0.63;72.39;98350.63;10399800;28;20064;-69
2022/04/10 22:01:05;;;;;;;12.82;2.13;;;;;;;0.59;72.51;98329.94;10399993;28;20045;-70
2022/04/10 22:06:07;;;;;;;9.98;2.60;;;;;;;0.53;72.30;98305.78;10399436;28;20217;-70
2022/04/10 22:11:09;;;;;;;7.32;1.90;;;;;;;0.51;72.36;98299.75;10399881;28;20508;-70
2022/04/10 22:16:10;;;;;;;6.53;1.80;;;;;;;0.48;72.41;98291.09;10392888;28;20059;-69
2022/04/10 22:21:14;;;;;;;5.93;2.10;;;;;;;0.42;72.14;98266.13;10408213;28;20684;-68
2022/04/10 22:26:15;;;;;;;7.43;2.03;;;;;;;0.37;72.43;98241.16;10402599;28;20548;-70
2022/04/10 22:31:17;;;;;;;2.85;1.35;;;;;;;0.27;72.24;98204.06;10399135;28;20044;-70
2022/04/10 22:36:18;;;;;;;7.68;2.28;;;;;;;0.18;72.30;98176.47;10398726;28;20041;-70
2022/04/10 22:41:20;;;;;;;9.48;2.55;;;;;;;0.14;72.56;98162.69;10398989;28;20088;-69
2022/04/10 22:46:22;;;;;;;10.20;3.40;;;;;;;0.06;72.66;98125.69;10399018;28;20046;-70
2022/04/10 22:51:25;;;;;;;10.60;3.00;;;;;;;0.04;72.35;98119.63;10392202;28;20436;-70
2022/04/10 22:56:27;;;;;;;15.75;3.88;;;;;;;0.04;72.37;98127.34;10398603;28;20053;-69
2022/04/10 23:01:29;;;;;;;11.30;3.15;;;;;;;0.00;72.39;98102.44;10398732;28;20052;-70
2022/04/10 23:06:31;;;;;;;11.55;3.22;;;;;;;0.03;72.70;98120.50;10398594;28;20041;-68
2022/04/10 23:11:32;;;;;;;14.10;5.13;;;;;;;0.08;72.69;98141.16;10397547;28;20046;-69
2022/04/10 23:16:34;;;;;;;16.95;7.05;;;;;;;0.12;72.67;98156.66;10403193;28;20041;-68
2022/04/10 23:21:36;;;;;;;12.80;6.57;;;;;;;0.19;72.87;98177.34;10405904;28;20568;-69
2022/04/10 23:26:38;;;;;;;17.55;5.25;;;;;;;0.23;72.88;98192.00;10406553;28;20037;-69
2022/04/10 23:31:39;;;;;;;12.23;3.15;;;;;;;0.30;72.99;98229.84;10398597;28;20045;-69
2022/04/10 23:36:41;;;;;;;9.38;2.45;;;;;;;0.40;73.29;98266.94;10405746;28;20053;-69
2022/04/10 23:41:43;;;;;;;8.43;2.10;;;;;;;0.47;73.32;98291.97;10405022;28;20047;-68
2022/04/10 23:46:44;;;;;;;9.77;2.25;;;;;;;0.52;73.12;98305.78;10405885;28;20152;-69
2022/04/10 23:51:46;;;;;;;6.05;2.10;;;;;;;0.62;73.63;98355.75;10405347;28;20072;-70
2022/04/10 23:56:47;;;;;;;6.15;2.30;;;;;;;0.66;73.43;98370.38;10405370;28;20045;-69
